Time;durP1;ratioP1;P1;durP2;ratioP2;P2;SDS_P1;SDS_P2;PMS_P1;PMS_P2;Temp;Humidity;BMP_temperature;BMP_pressure;BME280_temperature;BME280_humidity;BME280_pressure;Samples;Min_cycle;Max_cycle;Signal;HPM_P1;HPM_P2
2021/03/24 00:00:11;;;;;;;42.58;6.57;;;;;;;;;;4983508;28;20041;-45
2021/03/24 00:02:38;;;;;;;40.25;6.40;;;;;;;;;;4976504;28;20038;-45
2021/03/24 00:05:25;;;;;;;42.30;6.80;;;;;;;;;;4975132;28;20026;-44
2021/03/24 00:07:52;;;;;;;28.80;6.18;;;;;;;;;;4975173;28;20055;-44
2021/03/24 00:10:19;;;;;;;27.50;6.38;;;;;;;;;;4971848;28;20042;-43
2021/03/24 00:12:46;;;;;;;26.17;6.28;;;;;;;;;;4971622;28;20549;-45
2021/03/24 00:15:13;;;;;;;29.83;6.28;;;;;;;;;;4992093;28;20026;-48
2021/03/24 00:17:40;;;;;;;26.77;5.63;;;;;;;;;;4991657;28;20073;-45
2021/03/24 00:20:08;;;;;;;32.38;6.25;;;;;;;;;;4992493;28;20054;-47
2021/03/24 00:22:35;;;;;;;35.03;6.43;;;;;;;;;;4992925;28;20128;-46
2021/03/24 00:25:02;;;;;;;36.83;6.38;;;;;;;;;;4972819;28;20093;-45
2021/03/24 00:27:29;;;;;;;24.23;5.72;;;;;;;;;;4975888;28;20134;-45
2021/03/24 00:29:57;;;;;;;28.63;5.95;;;;;;;;;;4992909;28;20553;-43
2021/03/24 00:32:24;;;;;;;24.15;5.75;;;;;;;;;;4993306;28;20502;-45
2021/03/24 00:34:51;;;;;;;26.15;4.97;;;;;;;;;;4972454;28;20423;-45
2021/03/24 00:37:18;;;;;;;20.00;4.72;;;;;;;;;;4981104;28;20029;-44
2021/03/24 00:39:45;;;;;;;21.27;5.45;;;;;;;;;;4993201;28;20038;-45
2021/03/24 00:42:12;;;;;;;24.65;5.18;;;;;;;;;;4976048;28;20105;-48
2021/03/24 00:44:39;;;;;;;19.20;4.82;;;;;;;;;;4974131;28;20030;-45
2021/03/24 00:47:06;;;;;;;29.67;4.97;;;;;;;;;;4989891;28;20142;-46
2021/03/24 00:49:33;;;;;;;19.25;4.85;;;;;;;;;;4975236;28;20039;-45
2021/03/24 00:52:00;;;;;;;20.17;4.10;;;;;;;;;;4974828;28;20491;-45
2021/03/24 00:54:27;;;;;;;17.63;4.50;;;;;;;;;;4973515;28;20030;-45
2021/03/24 00:56:54;;;;;;;20.75;4.00;;;;;;;;;;4975451;28;20023;-45
2021/03/24 00:59:21;;;;;;;21.23;5.25;;;;;;;;;;4979536;28;20038;-46
2021/03/24 01:01:48;;;;;;;24.65;4.90;;;;;;;;;;4974417;28;20074;-48
2021/03/24 01:04:15;;;;;;;23.23;4.53;;;;;;;;;;4975360;28;20031;-47
2021/03/24 01:06:42;;;;;;;23.25;4.65;;;;;;;;;;4974292;28;20089;-45
2021/03/24 01:09:10;;;;;;;18.70;4.28;;;;;;;;;;4973601;28;20436;-46
2021/03/24 01:11:40;;;;;;;18.05;3.83;;;;;;;;;;4974672;28;20018;-44
2021/03/24 01:14:08;;;;;;;18.58;5.20;;;;;;;;;;4984533;28;20488;-47
2021/03/24 01:16:35;;;;;;;13.45;4.78;;;;;;;;;;4992376;28;20030;-45
2021/03/24 01:19:03;;;;;;;23.98;5.22;;;;;;;;;;4992591;28;20026;-49
2021/03/24 01:21:30;;;;;;;23.83;4.57;;;;;;;;;;4964389;28;20050;-47
2021/03/24 01:23:57;;;;;;;17.38;4.15;;;;;;;;;;4972620;28;20046;-46
2021/03/24 01:26:24;;;;;;;15.75;4.07;;;;;;;;;;4972686;28;20101;-48
2021/03/24 01:29:00;;;;;;;10.50;4.00;;;;;;;;;;4953959;28;20377;-47
2021/03/24 01:31:30;;;;;;;12.57;3.75;;;;;;;;;;4954341;28;20023;-46
2021/03/24 01:33:59;;;;;;;16.55;4.03;;;;;;;;;;4953484;28;20046;-48
2021/03/24 01:36:26;;;;;;;18.27;4.55;;;;;;;;;;4967709;28;20582;-46
2021/03/24 01:38:53;;;;;;;21.92;4.32;;;;;;;;;;4957409;28;20050;-46
2021/03/24 01:41:21;;;;;;;18.45;3.95;;;;;;;;;;4955083;28;20027;-46
2021/03/24 01:43:48;;;;;;;16.90;3.88;;;;;;;;;;4955201;28;20035;-47
2021/03/24 01:46:22;;;;;;;12.48;3.45;;;;;;;;;;4971232;28;20015;-45
2021/03/24 01:48:49;;;;;;;12.70;3.60;;;;;;;;;;4955478;28;20031;-47
2021/03/24 01:51:16;;;;;;;14.20;3.28;;;;;;;;;;4956395;28;20550;-47
2021/03/24 01:53:44;;;;;;;9.05;3.30;;;;;;;;;;4969375;28;20074;-47
2021/03/24 01:56:12;;;;;;;22.80;4.57;;;;;;;;;;4970267;28;20027;-46
2021/03/24 01:58:39;;;;;;;15.82;3.72;;;;;;;;;;4971028;28;20043;-47
2021/03/24 02:01:13;;;;;;;13.80;2.85;;;;;;;;;;4971039;28;20361;-47
2021/03/24 02:03:46;;;;;;;13.25;3.20;;;;;;;;;;4961333;28;20047;-46
2021/03/24 02:06:36;;;;;;;14.95;2.83;;;;;;;;;;4955438;28;20085;-45
2021/03/24 02:09:08;;;;;;;10.63;2.85;;;;;;;;;;4942003;28;20519;-47
2021/03/24 02:11:39;;;;;;;8.80;2.38;;;;;;;;;;4953766;28;20106;-44
2021/03/24 02:14:10;;;;;;;14.52;2.95;;;;;;;;;;4952984;28;20025;-47
2021/03/24 02:16:39;;;;;;;9.57;2.10;;;;;;;;;;4961337;28;20788;-45
2021/03/24 02:19:13;;;;;;;16.33;3.67;;;;;;;;;;4960809;28;20026;-44
2021/03/24 02:21:41;;;;;;;8.80;2.38;;;;;;;;;;4968957;28;20065;-44
2021/03/24 02:24:21;;;;;;;10.35;2.45;;;;;;;;;;4979759;28;20455;-44
2021/03/24 02:27:26;;;;;;;12.18;2.92;;;;;;;;;;4980160;28;20030;-45
2021/03/24 02:29:55;;;;;;;10.77;2.22;;;;;;;;;;4937264;29;20035;-45
2021/03/24 02:32:24;;;;;;;9.80;2.40;;;;;;;;;;4937835;29;20067;-45
2021/03/24 02:34:52;;;;;;;11.10;2.47;;;;;;;;;;4960987;28;20035;-46
2021/03/24 02:37:20;;;;;;;10.80;2.97;;;;;;;;;;4997803;28;20449;-46
2021/03/24 02:39:48;;;;;;;8.68;2.15;;;;;;;;;;4997875;28;20130;-45
2021/03/24 02:42:16;;;;;;;7.07;2.30;;;;;;;;;;4978279;28;20018;-50
2021/03/24 02:44:43;;;;;;;9.27;2.38;;;;;;;;;;4997939;28;20033;-45
2021/03/24 02:47:11;;;;;;;15.88;2.83;;;;;;;;;;4996096;28;20497;-50
2021/03/24 02:49:40;;;;;;;8.27;1.92;;;;;;;;;;4998020;28;20033;-45
2021/03/24 02:52:07;;;;;;;8.73;1.92;;;;;;;;;;4997539;28;20069;-46
2021/03/24 02:54:35;;;;;;;8.60;2.35;;;;;;;;;;4997628;28;20374;-44
2021/03/24 02:57:02;;;;;;;7.75;2.25;;;;;;;;;;4998141;28;20112;-45
2021/03/24 02:59:29;;;;;;;5.32;1.80;;;;;;;;;;4997556;28;20062;-44
2021/03/24 03:02:00;;;;;;;7.18;1.98;;;;;;;;;;4997870;28;20077;-46
2021/03/24 03:04:29;;;;;;;4.18;1.95;;;;;;;;;;4997810;28;20025;-46
2021/03/24 03:06:58;;;;;;;5.70;1.90;;;;;;;;;;4997751;28;20101;-46
2021/03/24 03:09:32;;;;;;;8.77;1.75;;;;;;;;;;4997554;28;20088;-44
2021/03/24 03:11:59;;;;;;;8.85;1.85;;;;;;;;;;4997600;28;20022;-45
2021/03/24 03:14:34;;;;;;;5.65;1.95;;;;;;;;;;4997572;28;20048;-44
2021/03/24 03:17:04;;;;;;;6.97;1.67;;;;;;;;;;4997702;28;20018;-45
2021/03/24 03:19:54;;;;;;;14.68;1.85;;;;;;;;;;4997501;28;20533;-46
2021/03/24 03:22:24;;;;;;;13.10;1.88;;;;;;;;;;4985017;28;20402;-45
2021/03/24 03:24:52;;;;;;;14.85;2.47;;;;;;;;;;4996129;28;20503;-44
2021/03/24 03:27:21;;;;;;;6.97;1.83;;;;;;;;;;4968274;28;20022;-43
2021/03/24 03:29:50;;;;;;;9.38;2.25;;;;;;;;;;4989807;28;20478;-44
2021/03/24 03:32:18;;;;;;;6.45;2.08;;;;;;;;;;4989845;28;20479;-45
2021/03/24 03:34:49;;;;;;;12.13;2.13;;;;;;;;;;4972128;28;20037;-44
2021/03/24 03:37:17;;;;;;;5.20;2.13;;;;;;;;;;4988000;28;20027;-44
2021/03/24 03:39:45;;;;;;;4.65;2.03;;;;;;;;;;4992323;28;20090;-44
2021/03/24 03:42:12;;;;;;;12.82;1.70;;;;;;;;;;4986466;28;20026;-43
2021/03/24 03:44:39;;;;;;;5.53;1.90;;;;;;;;;;5166052;22;20200;-43
2021/03/24 03:47:08;;;;;;;6.57;2.63;;;;;;;;;;4986488;28;20389;-45
2021/03/24 03:49:37;;;;;;;5.90;2.20;;;;;;;;;;4986458;28;20034;-45
2021/03/24 03:52:16;;;;;;;8.50;2.13;;;;;;;;;;4986740;28;20030;-45
2021/03/24 03:54:52;;;;;;;8.20;1.60;;;;;;;;;;4985001;28;20105;-47
2021/03/24 03:57:37;;;;;;;7.50;1.60;;;;;;;;;;4967417;28;20054;-46
2021/03/24 04:00:11;;;;;;;7.07;1.70;;;;;;;;;;4984424;28;20038;-45
2021/03/24 04:02:40;;;;;;;10.00;2.20;;;;;;;;;;4988927;28;20482;-45
2021/03/24 04:05:09;;;;;;;6.40;2.25;;;;;;;;;;4993809;28;20501;-47
2021/03/24 04:07:42;;;;;;;9.43;2.00;;;;;;;;;;4976772;28;20025;-46
2021/03/24 04:10:10;;;;;;;6.55;2.65;;;;;;;;;;4994278;28;20042;-46
2021/03/24 04:12:38;;;;;;;13.07;1.98;;;;;;;;;;4994749;28;20065;-46
2021/03/24 04:15:08;;;;;;;11.05;2.00;;;;;;;;;;4993701;28;20026;-45
2021/03/24 04:17:39;;;;;;;15.07;2.03;;;;;;;;;;4994023;28;20088;-45
2021/03/24 04:20:08;;;;;;;11.23;2.37;;;;;;;;;;4994329;28;20420;-46
2021/03/24 04:22:35;;;;;;;7.45;1.77;;;;;;;;;;4994368;28;20022;-46
2021/03/24 04:25:03;;;;;;;8.95;2.13;;;;;;;;;;4994197;28;20081;-47
2021/03/24 04:27:34;;;;;;;5.20;2.30;;;;;;;;;;4994464;28;20026;-50
2021/03/24 04:30:04;;;;;;;7.45;1.83;;;;;;;;;;4993319;28;20057;-47
2021/03/24 04:32:32;;;;;;;5.57;1.80;;;;;;;;;;4993088;28;20026;-46
2021/03/24 04:34:59;;;;;;;6.57;1.98;;;;;;;;;;4991383;28;20042;-44
2021/03/24 04:37:46;;;;;;;6.88;1.70;;;;;;;;;;4987350;28;20087;-43
2021/03/24 04:40:31;;;;;;;5.95;2.10;;;;;;;;;;4984788;28;20075;-43
2021/03/24 04:43:08;;;;;;;4.78;2.20;;;;;;;;;;4984907;28;20278;-43
2021/03/24 04:45:47;;;;;;;7.35;2.03;;;;;;;;;;4990799;28;20101;-44
2021/03/24 04:48:19;;;;;;;5.72;2.00;;;;;;;;;;4975514;28;20028;-45
2021/03/24 04:50:49;;;;;;;5.53;2.25;;;;;;;;;;4993420;28;20394;-45
2021/03/24 04:53:18;;;;;;;7.32;1.85;;;;;;;;;;4992321;28;20501;-45
2021/03/24 04:55:45;;;;;;;4.47;2.03;;;;;;;;;;4993674;28;20026;-49
2021/03/24 04:58:19;;;;;;;5.82;2.05;;;;;;;;;;4993482;28;20023;-50
2021/03/24 05:00:51;;;;;;;6.32;1.70;;;;;;;;;;4993870;28;20054;-47
2021/03/24 05:03:17;;;;;;;;;;;;;;;;;;4994130;28;20022;-47
2021/03/24 05:05:48;;;;;;;7.50;2.38;;;;;;;;;;4993296;28;19910;-48
2021/03/24 05:08:25;;;;;;;6.53;1.75;;;;;;;;;;4993710;28;20076;-46
2021/03/24 05:10:52;;;;;;;3.78;1.80;;;;;;;;;;4993506;28;20022;-48
2021/03/24 05:13:30;;;;;;;7.20;1.60;;;;;;;;;;4993587;28;20042;-47
2021/03/24 05:15:59;;;;;;;5.40;1.98;;;;;;;;;;4993586;28;20027;-48
2021/03/24 05:18:26;;;;;;;7.55;1.60;;;;;;;;;;4993209;28;20034;-46
2021/03/24 05:20:54;;;;;;;4.13;1.77;;;;;;;;;;4975917;28;20070;-49
2021/03/24 05:23:22;;;;;;;8.15;2.20;;;;;;;;;;4993515;28;20022;-47
2021/03/24 05:26:15;;;;;;;3.63;1.70;;;;;;;;;;4993231;28;20385;-46
2021/03/24 05:28:44;;;;;;;8.90;2.25;;;;;;;;;;4990102;28;20042;-47
2021/03/24 05:31:14;;;;;;;6.15;1.70;;;;;;;;;;4993210;28;20046;-48
2021/03/24 05:33:49;;;;;;;4.65;1.85;;;;;;;;;;4993181;28;20031;-49
2021/03/24 05:36:22;;;;;;;4.93;1.80;;;;;;;;;;4993323;28;20105;-46
2021/03/24 05:38:53;;;;;;;4.43;1.30;;;;;;;;;;4993608;28;20053;-46
2021/03/24 05:41:24;;;;;;;11.88;2.85;;;;;;;;;;4993200;28;20540;-45
2021/03/24 05:44:09;;;;;;;6.85;2.20;;;;;;;;;;4992691;28;20081;-47
2021/03/24 05:46:46;;;;;;;5.85;1.85;;;;;;;;;;4992940;28;20014;-49
2021/03/24 05:49:15;;;;;;;5.43;1.83;;;;;;;;;;4992411;28;20111;-47
2021/03/24 05:51:56;;;;;;;8.27;2.15;;;;;;;;;;4992834;28;20029;-45
2021/03/24 05:54:23;;;;;;;3.92;1.98;;;;;;;;;;4992915;28;20382;-49
2021/03/24 05:57:02;;;;;;;5.25;1.70;;;;;;;;;;4992908;28;20018;-47
2021/03/24 05:59:35;;;;;;;3.95;1.73;;;;;;;;;;4992947;28;20026;-47
2021/03/24 06:02:08;;;;;;;6.55;1.80;;;;;;;;;;4992817;28;20025;-50
2021/03/24 06:04:35;;;;;;;7.82;1.95;;;;;;;;;;4992965;28;20421;-46
2021/03/24 06:07:22;;;;;;;5.13;1.88;;;;;;;;;;4992712;28;20509;-46
2021/03/24 06:10:04;;;;;;;3.75;1.55;;;;;;;;;;4979299;28;20468;-45
2021/03/24 06:12:50;;;;;;;4.72;1.88;;;;;;;;;;4992625;28;20030;-45
2021/03/24 06:15:43;;;;;;;9.20;1.98;;;;;;;;;;4974978;28;20034;-45
2021/03/24 06:18:21;;;;;;;6.45;1.67;;;;;;;;;;4992582;28;20556;-45
2021/03/24 06:21:15;;;;;;;4.70;2.10;;;;;;;;;;4992560;28;20037;-45
2021/03/24 06:23:42;;;;;;;6.97;1.88;;;;;;;;;;4963132;28;20502;-48
2021/03/24 06:26:19;;;;;;;7.50;1.92;;;;;;;;;;4992564;28;20018;-46
2021/03/24 06:28:54;;;;;;;6.38;2.13;;;;;;;;;;4992468;28;20026;-46
2021/03/24 06:31:25;;;;;;;6.40;1.90;;;;;;;;;;4992761;28;20018;-46
2021/03/24 06:33:58;;;;;;;6.72;2.40;;;;;;;;;;4992678;28;20424;-47
2021/03/24 06:36:34;;;;;;;4.38;1.58;;;;;;;;;;4992577;28;20033;-46
2021/03/24 06:39:11;;;;;;;4.32;1.98;;;;;;;;;;4992526;28;20113;-46
2021/03/24 06:41:45;;;;;;;6.35;1.88;;;;;;;;;;4992388;28;20080;-47
2021/03/24 06:44:24;;;;;;;6.43;2.08;;;;;;;;;;4974664;28;20475;-47
2021/03/24 06:46:59;;;;;;;6.25;2.20;;;;;;;;;;4992484;28;20057;-46
2021/03/24 06:49:28;;;;;;;3.25;2.00;;;;;;;;;;4992447;28;20034;-46
2021/03/24 06:52:01;;;;;;;3.08;1.75;;;;;;;;;;4992343;28;20023;-46
2021/03/24 06:54:41;;;;;;;6.32;2.13;;;;;;;;;;4992332;28;20382;-47
2021/03/24 06:57:14;;;;;;;6.32;2.13;;;;;;;;;;4992314;28;20026;-47
2021/03/24 06:59:59;;;;;;;7.70;2.10;;;;;;;;;;4992359;28;20422;-47
2021/03/24 07:02:26;;;;;;;3.10;1.63;;;;;;;;;;4995824;28;20386;-46
2021/03/24 07:05:02;;;;;;;5.10;2.10;;;;;;;;;;4995825;28;20360;-47
2021/03/24 07:07:39;;;;;;;7.40;2.30;;;;;;;;;;4995892;28;20031;-46
2021/03/24 07:10:12;;;;;;;5.50;1.90;;;;;;;;;;4995823;28;20073;-46
2021/03/24 07:12:42;;;;;;;5.45;1.73;;;;;;;;;;4995871;28;20024;-47
2021/03/24 07:15:27;;;;;;;5.15;1.90;;;;;;;;;;4995846;28;20015;-45
2021/03/24 07:18:00;;;;;;;5.18;1.90;;;;;;;;;;4995920;28;20030;-47
2021/03/24 07:20:36;;;;;;;6.38;1.63;;;;;;;;;;4995524;28;20478;-48
2021/03/24 07:23:03;;;;;;;6.60;2.00;;;;;;;;;;4995524;28;20101;-50
2021/03/24 07:25:46;;;;;;;6.90;1.73;;;;;;;;;;4978087;28;20475;-48
2021/03/24 07:28:23;;;;;;;5.15;1.75;;;;;;;;;;4995450;28;20022;-48
2021/03/24 07:30:50;;;;;;;5.03;2.03;;;;;;;;;;4995345;28;20115;-47
2021/03/24 07:33:17;;;;;;;3.50;1.58;;;;;;;;;;4995425;28;20023;-48
2021/03/24 07:35:56;;;;;;;5.03;1.83;;;;;;;;;;4995430;28;20114;-46
2021/03/24 07:38:23;;;;;;;2.47;1.55;;;;;;;;;;4995352;28;20019;-48
2021/03/24 07:40:53;;;;;;;5.47;1.80;;;;;;;;;;4995449;28;20026;-48
2021/03/24 07:43:42;;;;;;;6.25;1.77;;;;;;;;;;4994939;28;20046;-47
2021/03/24 07:46:33;;;;;;;5.35;2.00;;;;;;;;;;4995079;28;20030;-47
2021/03/24 07:49:11;;;;;;;6.93;2.05;;;;;;;;;;4995159;28;20035;-49
2021/03/24 07:51:57;;;;;;;6.15;2.08;;;;;;;;;;4995004;28;20027;-47
2021/03/24 07:54:31;;;;;;;3.72;1.85;;;;;;;;;;4995015;28;20097;-47
2021/03/24 07:57:13;;;;;;;4.32;1.60;;;;;;;;;;4977916;28;20023;-48
2021/03/24 08:00:06;;;;;;;6.15;2.17;;;;;;;;;;4995031;28;20037;-51
2021/03/24 08:02:55;;;;;;;2.80;2.10;;;;;;;;;;4965288;28;20367;-48
2021/03/24 08:05:28;;;;;;;5.00;2.00;;;;;;;;;;4994924;28;20046;-48
2021/03/24 08:08:10;;;;;;;5.45;1.67;;;;;;;;;;4994874;28;20429;-48
2021/03/24 08:11:12;;;;;;;6.57;1.92;;;;;;;;;;4994543;28;20068;-50
2021/03/24 08:13:45;;;;;;;2.85;1.80;;;;;;;;;;4914904;29;20032;-46
2021/03/24 08:16:15;;;;;;;3.78;1.70;;;;;;;;;;4982568;28;20149;-47
2021/03/24 08:18:41;;;;;;;5.35;1.95;;;;;;;;;;4994646;28;20085;-47
2021/03/24 08:21:20;;;;;;;3.83;1.50;;;;;;;;;;4994529;28;20544;-48
2021/03/24 08:23:59;;;;;;;4.03;1.80;;;;;;;;;;4994702;28;20030;-49
2021/03/24 08:26:25;;;;;;;8.05;1.73;;;;;;;;;;4994458;28;20077;-49
2021/03/24 08:28:55;;;;;;;3.53;1.92;;;;;;;;;;4994332;28;20364;-47
2021/03/24 08:31:57;;;;;;;5.18;1.88;;;;;;;;;;4994403;28;20033;-49
2021/03/24 08:34:41;;;;;;;3.53;1.57;;;;;;;;;;4915225;29;20040;-48
2021/03/24 08:37:26;;;;;;;4.53;1.55;;;;;;;;;;4987985;28;20038;-50
2021/03/24 08:40:11;;;;;;;5.65;2.03;;;;;;;;;;4994228;28;20027;-48
2021/03/24 08:42:44;;;;;;;4.03;1.80;;;;;;;;;;4994071;28;20026;-47
2021/03/24 08:45:30;;;;;;;3.13;1.80;;;;;;;;;;4976521;28;20050;-50
2021/03/24 08:48:02;;;;;;;5.32;1.95;;;;;;;;;;4976665;28;20034;-47
2021/03/24 08:50:51;;;;;;;3.17;1.55;;;;;;;;;;4994015;28;20502;-47
2021/03/24 08:53:21;;;;;;;7.88;1.80;;;;;;;;;;4993678;28;20031;-47
2021/03/24 08:56:11;;;;;;;9.02;1.98;;;;;;;;;;4993835;28;20402;-49
2021/03/24 08:58:39;;;;;;;3.45;1.80;;;;;;;;;;4993801;28;20367;-48
2021/03/24 09:01:24;;;;;;;4.68;2.05;;;;;;;;;;4993744;28;20031;-47
2021/03/24 09:04:03;;;;;;;4.75;1.70;;;;;;;;;;4993696;28;20030;-48
2021/03/24 09:06:37;;;;;;;4.45;1.85;;;;;;;;;;4993726;28;20026;-47
2021/03/24 09:09:22;;;;;;;3.95;1.45;;;;;;;;;;4993648;28;20391;-47
2021/03/24 09:11:49;;;;;;;4.53;2.00;;;;;;;;;;4993575;28;20027;-48
2021/03/24 09:14:24;;;;;;;7.90;1.83;;;;;;;;;;4993762;28;20105;-47
2021/03/24 09:16:51;;;;;;;3.88;1.83;;;;;;;;;;4993428;28;20022;-47
2021/03/24 09:19:18;;;;;;;3.75;1.70;;;;;;;;;;4993404;28;20053;-48
2021/03/24 09:21:44;;;;;;;7.15;1.85;;;;;;;;;;4993598;28;20081;-46
2021/03/24 09:24:12;;;;;;;5.30;1.77;;;;;;;;;;4992564;28;20022;-48
2021/03/24 09:26:45;;;;;;;5.45;2.08;;;;;;;;;;4993224;28;20014;-46
2021/03/24 09:29:24;;;;;;;4.85;1.95;;;;;;;;;;4993489;28;20046;-46
2021/03/24 09:32:04;;;;;;;4.70;2.10;;;;;;;;;;4993323;28;20386;-47
2021/03/24 09:34:43;;;;;;;6.65;1.80;;;;;;;;;;4993150;28;20065;-47
2021/03/24 09:37:15;;;;;;;6.57;1.92;;;;;;;;;;4975736;28;20046;-46
2021/03/24 09:39:42;;;;;;;4.20;1.50;;;;;;;;;;4993193;28;20026;-48
2021/03/24 09:42:42;;;;;;;3.80;2.03;;;;;;;;;;4992906;28;20097;-46
2021/03/24 09:45:15;;;;;;;4.60;1.70;;;;;;;;;;4949980;28;20413;-46
2021/03/24 09:47:42;;;;;;;5.75;1.67;;;;;;;;;;4993039;28;20029;-46
2021/03/24 09:50:09;;;;;;;8.85;1.77;;;;;;;;;;4993086;28;20038;-51
2021/03/24 09:52:52;;;;;;;3.38;1.58;;;;;;;;;;4992969;28;20153;-52
2021/03/24 09:55:28;;;;;;;4.25;1.95;;;;;;;;;;4993004;28;20033;-49
2021/03/24 09:57:55;;;;;;;4.25;1.50;;;;;;;;;;4992733;28;20057;-49
2021/03/24 10:00:22;;;;;;;8.68;1.83;;;;;;;;;;4992992;28;20022;-47
2021/03/24 10:02:51;;;;;;;3.85;2.10;;;;;;;;;;4992721;28;20513;-47
2021/03/24 10:05:25;;;;;;;3.75;1.83;;;;;;;;;;4992708;28;20406;-49
2021/03/24 10:08:00;;;;;;;4.85;1.98;;;;;;;;;;4992753;28;20026;-47
2021/03/24 10:10:33;;;;;;;5.18;1.92;;;;;;;;;;4992654;28;20034;-46
2021/03/24 10:13:20;;;;;;;5.13;1.75;;;;;;;;;;4992718;28;20018;-46
2021/03/24 10:15:47;;;;;;;5.35;2.20;;;;;;;;;;4992944;28;20076;-48
2021/03/24 10:18:22;;;;;;;5.13;2.20;;;;;;;;;;4992596;28;20023;-45
2021/03/24 10:20:52;;;;;;;8.93;2.38;;;;;;;;;;4992563;28;20023;-47
2021/03/24 10:23:22;;;;;;;3.97;1.52;;;;;;;;;;4992506;28;20497;-48
2021/03/24 10:26:12;;;;;;;6.20;2.25;;;;;;;;;;4992846;28;20549;-46
2021/03/24 10:28:39;;;;;;;4.65;1.60;;;;;;;;;;4956430;28;20494;-47
2021/03/24 10:31:11;;;;;;;4.53;1.92;;;;;;;;;;4992411;28;20069;-46
2021/03/24 10:33:40;;;;;;;3.83;1.83;;;;;;;;;;4992367;28;20027;-47
2021/03/24 10:36:28;;;;;;;5.70;1.90;;;;;;;;;;4993919;28;20097;-48
2021/03/24 10:38:55;;;;;;;3.95;1.83;;;;;;;;;;4996369;28;20021;-47
2021/03/24 10:41:25;;;;;;;5.57;2.03;;;;;;;;;;4996397;28;20054;-47
2021/03/24 10:43:55;;;;;;;3.72;1.90;;;;;;;;;;4995795;28;20125;-46
2021/03/24 10:46:25;;;;;;;4.22;2.03;;;;;;;;;;4996296;28;20054;-45
2021/03/24 10:48:58;;;;;;;3.97;1.60;;;;;;;;;;4996330;28;20081;-46
2021/03/24 10:51:34;;;;;;;3.88;1.65;;;;;;;;;;4996395;28;20054;-47
2021/03/24 10:54:22;;;;;;;5.18;1.75;;;;;;;;;;4996172;28;20359;-47
2021/03/24 10:57:07;;;;;;;7.82;1.98;;;;;;;;;;4996025;28;20113;-46
2021/03/24 10:59:41;;;;;;;6.82;2.08;;;;;;;;;;4995889;28;20491;-48
2021/03/24 11:02:26;;;;;;;5.45;1.88;;;;;;;;;;4996104;28;20025;-49
2021/03/24 11:05:09;;;;;;;5.35;2.10;;;;;;;;;;4995843;28;20030;-47
2021/03/24 11:07:52;;;;;;;7.38;1.98;;;;;;;;;;4995952;28;20031;-51
2021/03/24 11:10:37;;;;;;;6.88;2.42;;;;;;;;;;4995837;28;20038;-51
2021/03/24 11:13:10;;;;;;;21.00;2.67;;;;;;;;;;4995774;28;20054;-48
2021/03/24 11:15:40;;;;;;;5.93;2.10;;;;;;;;;;4995846;28;20494;-46
2021/03/24 11:18:09;;;;;;;7.00;2.05;;;;;;;;;;4995764;28;20390;-47
2021/03/24 11:20:39;;;;;;;6.45;2.55;;;;;;;;;;4995722;28;20080;-50
2021/03/24 11:23:08;;;;;;;4.95;2.17;;;;;;;;;;4995456;28;20019;-47
2021/03/24 11:25:49;;;;;;;4.43;1.80;;;;;;;;;;4995834;28;20105;-48
2021/03/24 11:28:37;;;;;;;8.52;2.35;;;;;;;;;;4978253;28;20018;-47
2021/03/24 11:31:04;;;;;;;6.28;2.05;;;;;;;;;;4995709;28;20125;-47
2021/03/24 11:33:36;;;;;;;6.88;2.03;;;;;;;;;;4995386;28;20022;-51
2021/03/24 11:36:08;;;;;;;6.40;1.98;;;;;;;;;;4995450;28;20034;-49
2021/03/24 11:38:35;;;;;;;5.80;2.15;;;;;;;;;;4995122;28;20375;-48
2021/03/24 11:41:07;;;;;;;6.78;1.90;;;;;;;;;;4995486;28;20532;-47
2021/03/24 11:43:36;;;;;;;5.85;2.22;;;;;;;;;;4977457;28;20399;-47
2021/03/24 11:46:29;;;;;;;11.75;2.17;;;;;;;;;;4995294;28;20390;-47
2021/03/24 11:49:16;;;;;;;4.10;2.20;;;;;;;;;;4990673;28;20038;-50
2021/03/24 11:51:56;;;;;;;8.43;2.40;;;;;;;;;;4981904;28;20073;-48
2021/03/24 11:54:35;;;;;;;5.18;1.83;;;;;;;;;;4994943;28;20031;-46
2021/03/24 11:57:09;;;;;;;3.97;1.90;;;;;;;;;;4995197;28;20546;-48
2021/03/24 11:59:54;;;;;;;3.55;1.75;;;;;;;;;;4994732;28;20034;-49
2021/03/24 12:02:30;;;;;;;7.07;2.10;;;;;;;;;;4994940;28;20028;-47
2021/03/24 12:05:05;;;;;;;6.03;2.35;;;;;;;;;;4995001;28;20386;-47
2021/03/24 12:07:50;;;;;;;6.07;2.03;;;;;;;;;;4995009;28;20014;-46
2021/03/24 12:10:36;;;;;;;5.68;2.08;;;;;;;;;;4994888;28;20031;-48
2021/03/24 12:13:12;;;;;;;4.90;2.10;;;;;;;;;;4977431;28;20033;-47
2021/03/24 12:15:40;;;;;;;3.30;1.85;;;;;;;;;;4994760;28;20057;-48
2021/03/24 12:18:12;;;;;;;4.82;2.15;;;;;;;;;;4994619;28;20110;-47
2021/03/24 12:20:39;;;;;;;;;;;;;;;;;;4977512;28;20042;-51
2021/03/24 12:23:06;;;;;;;5.95;2.13;;;;;;;;;;4994602;28;19912;-48
2021/03/24 12:25:34;;;;;;;5.85;1.95;;;;;;;;;;4994430;28;20110;-47
2021/03/24 12:28:10;;;;;;;4.38;2.10;;;;;;;;;;4994329;28;20026;-47
2021/03/24 12:30:48;;;;;;;7.88;2.03;;;;;;;;;;4994514;28;20498;-48
2021/03/24 12:33:15;;;;;;;5.35;2.35;;;;;;;;;;4994192;28;20053;-50
2021/03/24 12:35:46;;;;;;;3.90;1.85;;;;;;;;;;4994406;28;20019;-47
2021/03/24 12:38:15;;;;;;;7.95;2.42;;;;;;;;;;4993565;28;20394;-49
2021/03/24 12:40:51;;;;;;;6.70;2.30;;;;;;;;;;4994039;28;20037;-48
2021/03/24 12:43:38;;;;;;;7.88;2.28;;;;;;;;;;4985806;28;20028;-48
2021/03/24 12:46:16;;;;;;;9.25;2.30;;;;;;;;;;4992008;28;20030;-49
2021/03/24 12:48:51;;;;;;;63.88;6.07;;;;;;;;;;4993799;28;20382;-48
2021/03/24 12:51:18;;;;;;;23.35;2.78;;;;;;;;;;4992986;28;20035;-46
2021/03/24 12:53:59;;;;;;;14.38;3.00;;;;;;;;;;4992566;28;20105;-46
2021/03/24 12:56:26;;;;;;;17.93;3.00;;;;;;;;;;4990498;28;20045;-47
2021/03/24 12:59:22;;;;;;;18.00;3.20;;;;;;;;;;4992876;28;20084;-47
2021/03/24 13:02:08;;;;;;;19.65;2.88;;;;;;;;;;4967970;28;20453;-45
2021/03/24 13:04:35;;;;;;;24.83;3.60;;;;;;;;;;4993205;28;20057;-45
2021/03/24 13:07:20;;;;;;;23.65;3.80;;;;;;;;;;4992883;28;20023;-45
2021/03/24 13:09:55;;;;;;;24.50;3.40;;;;;;;;;;4992929;28;20044;-46
2021/03/24 13:12:45;;;;;;;13.07;3.17;;;;;;;;;;4992616;28;20029;-48
2021/03/24 13:15:21;;;;;;;19.50;3.10;;;;;;;;;;4983003;28;20038;-45
2021/03/24 13:18:04;;;;;;;17.08;2.72;;;;;;;;;;4992036;28;20034;-45
2021/03/24 13:20:38;;;;;;;15.65;2.63;;;;;;;;;;4975386;28;20513;-44
2021/03/24 13:23:11;;;;;;;13.65;2.97;;;;;;;;;;4992391;28;20026;-45
2021/03/24 13:25:38;;;;;;;12.57;2.83;;;;;;;;;;4992805;28;20018;-45
2021/03/24 13:28:08;;;;;;;12.82;2.70;;;;;;;;;;4992471;28;20021;-46
2021/03/24 13:30:39;;;;;;;18.55;2.90;;;;;;;;;;4992551;28;20091;-47
2021/03/24 13:33:06;;;;;;;22.38;3.38;;;;;;;;;;4992485;28;20069;-47
2021/03/24 13:35:39;;;;;;;20.65;3.22;;;;;;;;;;4975332;28;20109;-45
2021/03/24 13:38:11;;;;;;;14.20;2.42;;;;;;;;;;4992126;28;20022;-45
2021/03/24 13:40:38;;;;;;;13.63;2.95;;;;;;;;;;4974258;28;20437;-46
2021/03/24 13:43:21;;;;;;;17.40;3.17;;;;;;;;;;4992144;28;20058;-45
2021/03/24 13:45:52;;;;;;;40.08;4.97;;;;;;;;;;4975346;28;20038;-45
2021/03/24 13:48:51;;;;;;;18.42;3.67;;;;;;;;;;4992252;28;20065;-45
2021/03/24 13:51:18;;;;;;;24.40;3.17;;;;;;;;;;4943226;28;20502;-46
2021/03/24 13:53:50;;;;;;;17.67;3.22;;;;;;;;;;4991469;28;20157;-46
2021/03/24 13:56:29;;;;;;;18.87;3.77;;;;;;;;;;4990333;28;20042;-45
2021/03/24 13:58:56;;;;;;;28.10;3.60;;;;;;;;;;4991944;28;20068;-44
2021/03/24 14:01:29;;;;;;;34.20;4.22;;;;;;;;;;4991603;28;20042;-44
2021/03/24 14:04:03;;;;;;;31.05;4.38;;;;;;;;;;4991821;28;20042;-45
2021/03/24 14:06:36;;;;;;;26.17;4.15;;;;;;;;;;4992288;28;20026;-45
2021/03/24 14:09:18;;;;;;;28.10;3.88;;;;;;;;;;4990785;28;20047;-45
2021/03/24 14:11:45;;;;;;;28.85;4.47;;;;;;;;;;4990604;28;20026;-45
2021/03/24 14:14:33;;;;;;;23.58;3.53;;;;;;;;;;4991325;28;20084;-45
2021/03/24 14:17:00;;;;;;;24.67;4.07;;;;;;;;;;4991428;28;20018;-46
2021/03/24 14:19:33;;;;;;;22.10;3.97;;;;;;;;;;4988174;28;20034;-46
2021/03/24 14:22:06;;;;;;;19.27;3.42;;;;;;;;;;4990034;28;20100;-45
2021/03/24 14:24:52;;;;;;;20.20;3.30;;;;;;;;;;4991052;28;20505;-45
2021/03/24 14:27:31;;;;;;;20.23;3.45;;;;;;;;;;4991844;28;20077;-44
2021/03/24 14:30:04;;;;;;;27.55;3.95;;;;;;;;;;4990982;28;20069;-47
2021/03/24 14:32:54;;;;;;;16.42;2.80;;;;;;;;;;4974635;28;20114;-46
2021/03/24 14:35:21;;;;;;;27.55;4.15;;;;;;;;;;4965910;28;20509;-46
2021/03/24 14:37:48;;;;;;;26.88;3.70;;;;;;;;;;4987718;28;20061;-45
2021/03/24 14:40:15;;;;;;;25.08;4.30;;;;;;;;;;4990358;28;20023;-45
2021/03/24 14:42:51;;;;;;;25.05;4.20;;;;;;;;;;4990764;28;20101;-46
2021/03/24 14:45:26;;;;;;;34.85;4.35;;;;;;;;;;4990153;28;20062;-47
2021/03/24 14:48:11;;;;;;;33.10;4.72;;;;;;;;;;4991317;28;20049;-46
2021/03/24 14:50:42;;;;;;;25.70;4.63;;;;;;;;;;4984022;28;20049;-46
2021/03/24 14:53:29;;;;;;;22.33;4.20;;;;;;;;;;4974189;28;20113;-46
2021/03/24 14:55:59;;;;;;;30.52;4.93;;;;;;;;;;4988540;28;20764;-48
2021/03/24 14:58:27;;;;;;;25.90;4.10;;;;;;;;;;4991718;28;20026;-46
2021/03/24 15:01:08;;;;;;;27.00;4.22;;;;;;;;;;4991474;28;20053;-46
2021/03/24 15:03:38;;;;;;;31.40;5.00;;;;;;;;;;4991419;28;20085;-46
2021/03/24 15:06:06;;;;;;;39.35;6.72;;;;;;;;;;4990523;28;20022;-45
2021/03/24 15:08:47;;;;;;;30.35;5.15;;;;;;;;;;4991030;28;20419;-47
2021/03/24 15:11:29;;;;;;;38.55;5.45;;;;;;;;;;4988246;28;20038;-46
2021/03/24 15:14:18;;;;;;;38.40;5.93;;;;;;;;;;4985108;28;20014;-49
2021/03/24 15:16:45;;;;;;;36.45;5.90;;;;;;;;;;4973006;28;20031;-48